sensor_id;sensor_type;location;lat;lon;timestamp;P1;durP1;ratioP1;P2;durP2;ratioP2
58484;SDS011;44268;43.138;0.072;2024-01-15T00:00:41;0.40;;;0.40;;
58484;SDS011;44268;43.138;0.072;2024-01-15T00:03:07;0.68;;;0.68;;
58484;SDS011;44268;43.138;0.072;2024-01-15T00:05:34;0.50;;;0.50;;
58484;SDS011;44268;43.138;0.072;2024-01-15T00:08:00;0.60;;;0.60;;
58484;SDS011;44268;43.138;0.072;2024-01-15T00:10:26;0.50;;;0.50;;
58484;SDS011;44268;43.138;0.072;2024-01-15T00:12:52;0.40;;;0.40;;
58484;SDS011;44268;43.138;0.072;2024-01-15T00:15:18;0.68;;;0.68;;
58484;SDS011;44268;43.138;0.072;2024-01-15T00:17:45;0.40;;;0.40;;
58484;SDS011;44268;43.138;0.072;2024-01-15T00:20:11;1.70;;;1.52;;
58484;SDS011;44268;43.138;0.072;2024-01-15T00:22:37;0.57;;;0.45;;
58484;SDS011;44268;43.138;0.072;2024-01-15T00:25:03;0.50;;;0.50;;
58484;SDS011;44268;43.138;0.072;2024-01-15T00:27:29;0.47;;;0.47;;
58484;SDS011;44268;43.138;0.072;2024-01-15T00:29:55;0.45;;;0.45;;
58484;SDS011;44268;43.138;0.072;2024-01-15T00:32:21;0.75;;;0.75;;
58484;SDS011;44268;43.138;0.072;2024-01-15T00:34:47;0.85;;;0.85;;
58484;SDS011;44268;43.138;0.072;2024-01-15T00:37:14;0.50;;;0.50;;
58484;SDS011;44268;43.138;0.072;2024-01-15T00:39:40;0.43;;;0.43;;
58484;SDS011;44268;43.138;0.072;2024-01-15T00:42:06;0.55;;;0.55;;
58484;SDS011;44268;43.138;0.072;2024-01-15T00:44:32;0.40;;;0.40;;
58484;SDS011;44268;43.138;0.072;2024-01-15T00:46:58;0.43;;;0.43;;
58484;SDS011;44268;43.138;0.072;2024-01-15T00:49:24;1.00;;;1.00;;
58484;SDS011;44268;43.138;0.072;2024-01-15T00:51:50;0.80;;;0.80;;
58484;SDS011;44268;43.138;0.072;2024-01-15T00:54:16;0.52;;;0.52;;
58484;SDS011;44268;43.138;0.072;2024-01-15T00:56:42;0.70;;;0.70;;
58484;SDS011;44268;43.138;0.072;2024-01-15T00:59:08;0.65;;;0.65;;
58484;SDS011;44268;43.138;0.072;2024-01-15T01:01:35;0.60;;;0.60;;
58484;SDS011;44268;43.138;0.072;2024-01-15T01:04:03;0.52;;;0.52;;
58484;SDS011;44268;43.138;0.072;2024-01-15T01:06:29;0.63;;;0.63;;
58484;SDS011;44268;43.138;0.072;2024-01-15T01:08:55;0.77;;;0.77;;
58484;SDS011;44268;43.138;0.072;2024-01-15T01:11:21;0.40;;;0.40;;
58484;SDS011;44268;43.138;0.072;2024-01-15T01:13:47;0.75;;;0.75;;
58484;SDS011;44268;43.138;0.072;2024-01-15T01:16:13;0.60;;;0.60;;
58484;SDS011;44268;43.138;0.072;2024-01-15T01:18:39;0.63;;;0.63;;
58484;SDS011;44268;43.138;0.072;2024-01-15T01:21:05;0.40;;;0.40;;
58484;SDS011;44268;43.138;0.072;2024-01-15T01:23:31;0.73;;;0.73;;
58484;SDS011;44268;43.138;0.072;2024-01-15T01:25:57;1.05;;;1.05;;
58484;SDS011;44268;43.138;0.072;2024-01-15T01:28:23;0.70;;;0.70;;
58484;SDS011;44268;43.138;0.072;2024-01-15T01:30:49;0.40;;;0.40;;
58484;SDS011;44268;43.138;0.072;2024-01-15T01:33:15;0.77;;;0.77;;
58484;SDS011;44268;43.138;0.072;2024-01-15T01:35:41;1.50;;;1.50;;
58484;SDS011;44268;43.138;0.072;2024-01-15T01:38:08;0.50;;;0.50;;
58484;SDS011;44268;43.138;0.072;2024-01-15T01:40:34;0.60;;;0.60;;
58484;SDS011;44268;43.138;0.072;2024-01-15T01:43:02;1.25;;;1.17;;
58484;SDS011;44268;43.138;0.072;2024-01-15T01:45:28;0.80;;;0.80;;
58484;SDS011;44268;43.138;0.072;2024-01-15T01:47:54;0.40;;;0.40;;
58484;SDS011;44268;43.138;0.072;2024-01-15T01:50:20;0.77;;;0.77;;
58484;SDS011;44268;43.138;0.072;2024-01-15T01:52:47;0.50;;;0.50;;
58484;SDS011;44268;43.138;0.072;2024-01-15T01:55:13;1.13;;;0.60;;
58484;SDS011;44268;43.138;0.072;2024-01-15T01:57:39;1.27;;;1.27;;
58484;SDS011;44268;43.138;0.072;2024-01-15T02:00:06;0.65;;;0.65;;
58484;SDS011;44268;43.138;0.072;2024-01-15T02:02:32;0.40;;;0.40;;
58484;SDS011;44268;43.138;0.072;2024-01-15T02:04:59;0.50;;;0.50;;
58484;SDS011;44268;43.138;0.072;2024-01-15T02:07:25;0.40;;;0.40;;
58484;SDS011;44268;43.138;0.072;2024-01-15T02:09:51;0.40;;;0.40;;
58484;SDS011;44268;43.138;0.072;2024-01-15T02:12:17;0.50;;;0.50;;
58484;SDS011;44268;43.138;0.072;2024-01-15T02:14:43;0.30;;;0.30;;
58484;SDS011;44268;43.138;0.072;2024-01-15T02:17:09;0.50;;;0.50;;
58484;SDS011;44268;43.138;0.072;2024-01-15T02:19:35;0.45;;;0.45;;
58484;SDS011;44268;43.138;0.072;2024-01-15T02:22:01;0.45;;;0.45;;
58484;SDS011;44268;43.138;0.072;2024-01-15T02:24:27;0.40;;;0.40;;
58484;SDS011;44268;43.138;0.072;2024-01-15T02:26:53;0.40;;;0.40;;
58484;SDS011;44268;43.138;0.072;2024-01-15T02:29:19;0.90;;;0.73;;
58484;SDS011;44268;43.138;0.072;2024-01-15T02:31:45;0.40;;;0.40;;
58484;SDS011;44268;43.138;0.072;2024-01-15T02:34:11;0.45;;;0.45;;
58484;SDS011;44268;43.138;0.072;2024-01-15T02:36:37;0.40;;;0.40;;
58484;SDS011;44268;43.138;0.072;2024-01-15T02:39:03;0.40;;;0.40;;
58484;SDS011;44268;43.138;0.072;2024-01-15T02:41:29;0.85;;;0.85;;
58484;SDS011;44268;43.138;0.072;2024-01-15T02:43:56;0.40;;;0.40;;
58484;SDS011;44268;43.138;0.072;2024-01-15T02:46:22;0.40;;;0.40;;
58484;SDS011;44268;43.138;0.072;2024-01-15T02:48:48;1.13;;;1.13;;
58484;SDS011;44268;43.138;0.072;2024-01-15T02:51:14;1.30;;;1.30;;
58484;SDS011;44268;43.138;0.072;2024-01-15T02:53:40;1.50;;;1.40;;
58484;SDS011;44268;43.138;0.072;2024-01-15T02:56:06;1.83;;;1.73;;
58484;SDS011;44268;43.138;0.072;2024-01-15T02:58:32;2.78;;;2.17;;
58484;SDS011;44268;43.138;0.072;2024-01-15T03:00:58;0.70;;;0.70;;
58484;SDS011;44268;43.138;0.072;2024-01-15T03:03:24;2.08;;;1.38;;
58484;SDS011;44268;43.138;0.072;2024-01-15T03:05:51;3.00;;;2.80;;
58484;SDS011;44268;43.138;0.072;2024-01-15T03:08:17;2.33;;;2.28;;
58484;SDS011;44268;43.138;0.072;2024-01-15T03:10:43;4.97;;;4.80;;
58484;SDS011;44268;43.138;0.072;2024-01-15T03:13:09;5.43;;;5.18;;
58484;SDS011;44268;43.138;0.072;2024-01-15T03:15:35;4.18;;;3.97;;
58484;SDS011;44268;43.138;0.072;2024-01-15T03:18:01;9.05;;;3.70;;
58484;SDS011;44268;43.138;0.072;2024-01-15T03:20:27;3.30;;;3.08;;
58484;SDS011;44268;43.138;0.072;2024-01-15T03:22:53;1.50;;;1.40;;
58484;SDS011;44268;43.138;0.072;2024-01-15T03:25:19;2.33;;;2.22;;
58484;SDS011;44268;43.138;0.072;2024-01-15T03:27:45;2.00;;;1.95;;
58484;SDS011;44268;43.138;0.072;2024-01-15T03:30:11;5.22;;;5.03;;
58484;SDS011;44268;43.138;0.072;2024-01-15T03:32:37;3.10;;;2.65;;
58484;SDS011;44268;43.138;0.072;2024-01-15T03:35:03;2.72;;;2.53;;
58484;SDS011;44268;43.138;0.072;2024-01-15T03:37:29;5.35;;;4.72;;
58484;SDS011;44268;43.138;0.072;2024-01-15T03:39:55;3.00;;;2.80;;
58484;SDS011;44268;43.138;0.072;2024-01-15T03:42:21;1.55;;;1.55;;
58484;SDS011;44268;43.138;0.072;2024-01-15T03:44:47;2.42;;;2.33;;
58484;SDS011;44268;43.138;0.072;2024-01-15T03:47:13;1.38;;;1.27;;
58484;SDS011;44268;43.138;0.072;2024-01-15T03:49:39;0.43;;;0.43;;
58484;SDS011;44268;43.138;0.072;2024-01-15T03:52:05;1.20;;;0.85;;
58484;SDS011;44268;43.138;0.072;2024-01-15T03:54:31;0.40;;;0.40;;
58484;SDS011;44268;43.138;0.072;2024-01-15T03:56:57;0.40;;;0.40;;
58484;SDS011;44268;43.138;0.072;2024-01-15T03:59:23;0.40;;;0.40;;
58484;SDS011;44268;43.138;0.072;2024-01-15T04:01:50;0.30;;;0.30;;
58484;SDS011;44268;43.138;0.072;2024-01-15T04:04:17;0.43;;;0.43;;
58484;SDS011;44268;43.138;0.072;2024-01-15T04:06:43;0.40;;;0.40;;
58484;SDS011;44268;43.138;0.072;2024-01-15T04:09:09;0.30;;;0.30;;
58484;SDS011;44268;43.138;0.072;2024-01-15T04:11:35;0.40;;;0.40;;
58484;SDS011;44268;43.138;0.072;2024-01-15T04:14:01;0.40;;;0.40;;
58484;SDS011;44268;43.138;0.072;2024-01-15T04:16:27;0.47;;;0.47;;
58484;SDS011;44268;43.138;0.072;2024-01-15T04:18:53;0.40;;;0.40;;
58484;SDS011;44268;43.138;0.072;2024-01-15T04:21:19;0.40;;;0.40;;
58484;SDS011;44268;43.138;0.072;2024-01-15T04:23:45;0.40;;;0.40;;
58484;SDS011;44268;43.138;0.072;2024-01-15T04:26:11;0.60;;;0.60;;
58484;SDS011;44268;43.138;0.072;2024-01-15T04:28:37;0.40;;;0.40;;
58484;SDS011;44268;43.138;0.072;2024-01-15T04:31:03;0.40;;;0.40;;
58484;SDS011;44268;43.138;0.072;2024-01-15T04:33:29;0.40;;;0.40;;
58484;SDS011;44268;43.138;0.072;2024-01-15T04:35:55;0.60;;;0.60;;
58484;SDS011;44268;43.138;0.072;2024-01-15T04:38:21;0.40;;;0.40;;
58484;SDS011;44268;43.138;0.072;2024-01-15T04:40:47;0.55;;;0.55;;
58484;SDS011;44268;43.138;0.072;2024-01-15T04:43:13;0.60;;;0.60;;
58484;SDS011;44268;43.138;0.072;2024-01-15T04:45:39;0.43;;;0.43;;
58484;SDS011;44268;43.138;0.072;2024-01-15T04:48:05;0.40;;;0.40;;
58484;SDS011;44268;43.138;0.072;2024-01-15T04:50:32;0.40;;;0.40;;
58484;SDS011;44268;43.138;0.072;2024-01-15T04:52:58;0.50;;;0.50;;
58484;SDS011;44268;43.138;0.072;2024-01-15T04:55:24;0.50;;;0.50;;
58484;SDS011;44268;43.138;0.072;2024-01-15T04:57:50;0.40;;;0.40;;
58484;SDS011;44268;43.138;0.072;2024-01-15T05:00:16;0.63;;;0.63;;
58484;SDS011;44268;43.138;0.072;2024-01-15T05:02:42;0.40;;;0.40;;
58484;SDS011;44268;43.138;0.072;2024-01-15T05:05:08;0.52;;;0.52;;
58484;SDS011;44268;43.138;0.072;2024-01-15T05:07:34;0.40;;;0.40;;
58484;SDS011;44268;43.138;0.072;2024-01-15T05:10:00;0.45;;;0.45;;
58484;SDS011;44268;43.138;0.072;2024-01-15T05:12:26;0.40;;;0.40;;
58484;SDS011;44268;43.138;0.072;2024-01-15T05:14:52;0.40;;;0.40;;
58484;SDS011;44268;43.138;0.072;2024-01-15T05:17:18;0.40;;;0.40;;
58484;SDS011;44268;43.138;0.072;2024-01-15T05:19:44;0.40;;;0.40;;
58484;SDS011;44268;43.138;0.072;2024-01-15T05:22:10;0.40;;;0.40;;
58484;SDS011;44268;43.138;0.072;2024-01-15T05:24:36;0.30;;;0.30;;
58484;SDS011;44268;43.138;0.072;2024-01-15T05:27:02;0.40;;;0.40;;
58484;SDS011;44268;43.138;0.072;2024-01-15T05:29:28;0.40;;;0.40;;
58484;SDS011;44268;43.138;0.072;2024-01-15T05:31:54;0.60;;;0.60;;
58484;SDS011;44268;43.138;0.072;2024-01-15T05:34:20;0.50;;;0.50;;
58484;SDS011;44268;43.138;0.072;2024-01-15T05:36:46;1.17;;;1.10;;
58484;SDS011;44268;43.138;0.072;2024-01-15T05:39:12;0.40;;;0.40;;
58484;SDS011;44268;43.138;0.072;2024-01-15T05:41:39;0.40;;;0.40;;
58484;SDS011;44268;43.138;0.072;2024-01-15T05:44:05;0.60;;;0.60;;
58484;SDS011;44268;43.138;0.072;2024-01-15T05:46:31;0.40;;;0.40;;
58484;SDS011;44268;43.138;0.072;2024-01-15T05:48:57;0.30;;;0.30;;
58484;SDS011;44268;43.138;0.072;2024-01-15T05:51:23;0.40;;;0.40;;
58484;SDS011;44268;43.138;0.072;2024-01-15T05:53:49;0.40;;;0.40;;
58484;SDS011;44268;43.138;0.072;2024-01-15T05:56:15;0.38;;;0.38;;
58484;SDS011;44268;43.138;0.072;2024-01-15T05:58:41;0.40;;;0.40;;
58484;SDS011;44268;43.138;0.072;2024-01-15T06:01:07;0.40;;;0.40;;
58484;SDS011;44268;43.138;0.072;2024-01-15T06:03:33;0.40;;;0.40;;
58484;SDS011;44268;43.138;0.072;2024-01-15T06:05:59;0.40;;;0.40;;
58484;SDS011;44268;43.138;0.072;2024-01-15T06:08:25;0.40;;;0.40;;
58484;SDS011;44268;43.138;0.072;2024-01-15T06:10:52;0.50;;;0.50;;
58484;SDS011;44268;43.138;0.072;2024-01-15T06:13:19;0.40;;;0.40;;
58484;SDS011;44268;43.138;0.072;2024-01-15T06:15:45;3.25;;;2.70;;
58484;SDS011;44268;43.138;0.072;2024-01-15T06:18:11;5.00;;;3.55;;
58484;SDS011;44268;43.138;0.072;2024-01-15T06:20:37;7.53;;;5.22;;
58484;SDS011;44268;43.138;0.072;2024-01-15T06:23:03;0.77;;;0.77;;
58484;SDS011;44268;43.138;0.072;2024-01-15T06:25:29;0.60;;;0.60;;
58484;SDS011;44268;43.138;0.072;2024-01-15T06:27:55;1.20;;;1.20;;
58484;SDS011;44268;43.138;0.072;2024-01-15T06:30:21;0.38;;;0.38;;
58484;SDS011;44268;43.138;0.072;2024-01-15T06:32:48;0.40;;;0.40;;
58484;SDS011;44268;43.138;0.072;2024-01-15T06:35:15;0.40;;;0.40;;
58484;SDS011;44268;43.138;0.072;2024-01-15T06:37:41;0.40;;;0.40;;
58484;SDS011;44268;43.138;0.072;2024-01-15T06:40:07;0.35;;;0.35;;
58484;SDS011;44268;43.138;0.072;2024-01-15T06:42:34;0.40;;;0.40;;
58484;SDS011;44268;43.138;0.072;2024-01-15T06:45:00;0.60;;;0.60;;
58484;SDS011;44268;43.138;0.072;2024-01-15T06:47:26;0.45;;;0.45;;
58484;SDS011;44268;43.138;0.072;2024-01-15T06:49:52;0.40;;;0.40;;
58484;SDS011;44268;43.138;0.072;2024-01-15T06:52:18;0.40;;;0.40;;
58484;SDS011;44268;43.138;0.072;2024-01-15T06:54:44;0.30;;;0.30;;
58484;SDS011;44268;43.138;0.072;2024-01-15T06:57:10;0.52;;;0.52;;
58484;SDS011;44268;43.138;0.072;2024-01-15T06:59:36;0.40;;;0.40;;
58484;SDS011;44268;43.138;0.072;2024-01-15T07:02:02;0.40;;;0.40;;
58484;SDS011;44268;43.138;0.072;2024-01-15T07:04:28;0.98;;;0.98;;
58484;SDS011;44268;43.138;0.072;2024-01-15T07:06:54;0.40;;;0.40;;
58484;SDS011;44268;43.138;0.072;2024-01-15T07:09:20;0.40;;;0.40;;
58484;SDS011;44268;43.138;0.072;2024-01-15T07:11:46;1.10;;;1.10;;
58484;SDS011;44268;43.138;0.072;2024-01-15T07:14:14;0.30;;;0.30;;
58484;SDS011;44268;43.138;0.072;2024-01-15T07:16:40;0.77;;;0.77;;
58484;SDS011;44268;43.138;0.072;2024-01-15T07:19:06;0.30;;;0.30;;
58484;SDS011;44268;43.138;0.072;2024-01-15T07:21:32;0.45;;;0.45;;
58484;SDS011;44268;43.138;0.072;2024-01-15T07:23:58;0.40;;;0.40;;
58484;SDS011;44268;43.138;0.072;2024-01-15T07:26:24;0.40;;;0.40;;
58484;SDS011;44268;43.138;0.072;2024-01-15T07:28:51;0.40;;;0.40;;
58484;SDS011;44268;43.138;0.072;2024-01-15T07:31:17;0.40;;;0.40;;
58484;SDS011;44268;43.138;0.072;2024-01-15T07:33:43;0.47;;;0.47;;
58484;SDS011;44268;43.138;0.072;2024-01-15T07:36:09;1.65;;;0.50;;
58484;SDS011;44268;43.138;0.072;2024-01-15T07:38:35;0.40;;;0.40;;
58484;SDS011;44268;43.138;0.072;2024-01-15T07:41:02;0.43;;;0.43;;
58484;SDS011;44268;43.138;0.072;2024-01-15T07:43:28;0.50;;;0.50;;
58484;SDS011;44268;43.138;0.072;2024-01-15T07:45:54;0.50;;;0.50;;
58484;SDS011;44268;43.138;0.072;2024-01-15T07:48:21;0.40;;;0.40;;
58484;SDS011;44268;43.138;0.072;2024-01-15T07:50:46;0.40;;;0.40;;
58484;SDS011;44268;43.138;0.072;2024-01-15T07:53:12;0.35;;;0.35;;
58484;SDS011;44268;43.138;0.072;2024-01-15T07:55:38;0.40;;;0.40;;
58484;SDS011;44268;43.138;0.072;2024-01-15T07:58:05;0.40;;;0.40;;
58484;SDS011;44268;43.138;0.072;2024-01-15T08:00:31;0.40;;;0.40;;
58484;SDS011;44268;43.138;0.072;2024-01-15T08:02:57;0.30;;;0.30;;
58484;SDS011;44268;43.138;0.072;2024-01-15T08:05:23;0.40;;;0.40;;
58484;SDS011;44268;43.138;0.072;2024-01-15T08:07:49;0.40;;;0.40;;
58484;SDS011;44268;43.138;0.072;2024-01-15T08:10:15;0.40;;;0.40;;
58484;SDS011;44268;43.138;0.072;2024-01-15T08:12:41;0.40;;;0.40;;
58484;SDS011;44268;43.138;0.072;2024-01-15T08:15:07;0.40;;;0.40;;
58484;SDS011;44268;43.138;0.072;2024-01-15T08:17:33;0.55;;;0.55;;
58484;SDS011;44268;43.138;0.072;2024-01-15T08:19:59;0.40;;;0.40;;
58484;SDS011;44268;43.138;0.072;2024-01-15T08:22:26;0.30;;;0.30;;
58484;SDS011;44268;43.138;0.072;2024-01-15T08:24:52;0.60;;;0.60;;
58484;SDS011;44268;43.138;0.072;2024-01-15T08:27:20;0.55;;;0.55;;
58484;SDS011;44268;43.138;0.072;2024-01-15T08:29:46;0.40;;;0.40;;
58484;SDS011;44268;43.138;0.072;2024-01-15T08:32:12;0.38;;;0.38;;
58484;SDS011;44268;43.138;0.072;2024-01-15T08:34:40;0.30;;;0.30;;
58484;SDS011;44268;43.138;0.072;2024-01-15T08:37:07;0.40;;;0.40;;
58484;SDS011;44268;43.138;0.072;2024-01-15T08:39:33;0.30;;;0.30;;
58484;SDS011;44268;43.138;0.072;2024-01-15T08:41:59;0.40;;;0.40;;
58484;SDS011;44268;43.138;0.072;2024-01-15T08:44:25;0.50;;;0.50;;
58484;SDS011;44268;43.138;0.072;2024-01-15T08:46:51;0.40;;;0.40;;
58484;SDS011;44268;43.138;0.072;2024-01-15T08:49:17;0.30;;;0.30;;
58484;SDS011;44268;43.138;0.072;2024-01-15T08:51:43;0.40;;;0.40;;
58484;SDS011;44268;43.138;0.072;2024-01-15T08:54:09;0.50;;;0.50;;
58484;SDS011;44268;43.138;0.072;2024-01-15T08:56:35;0.45;;;0.45;;
58484;SDS011;44268;43.138;0.072;2024-01-15T08:59:01;0.30;;;0.30;;
58484;SDS011;44268;43.138;0.072;2024-01-15T09:01:27;0.80;;;0.80;;
58484;SDS011;44268;43.138;0.072;2024-01-15T09:03:54;3.47;;;0.85;;
58484;SDS011;44268;43.138;0.072;2024-01-15T09:06:20;0.30;;;0.30;;
58484;SDS011;44268;43.138;0.072;2024-01-15T09:08:46;0.20;;;0.20;;
58484;SDS011;44268;43.138;0.072;2024-01-15T09:11:12;0.40;;;0.40;;
58484;SDS011;44268;43.138;0.072;2024-01-15T09:13:38;0.40;;;0.40;;
58484;SDS011;44268;43.138;0.072;2024-01-15T09:16:04;0.30;;;0.30;;
58484;SDS011;44268;43.138;0.072;2024-01-15T09:18:30;0.20;;;0.20;;
58484;SDS011;44268;43.138;0.072;2024-01-15T09:20:57;0.28;;;0.28;;
58484;SDS011;44268;43.138;0.072;2024-01-15T09:23:23;0.25;;;0.25;;
58484;SDS011;44268;43.138;0.072;2024-01-15T09:25:49;0.30;;;0.30;;
58484;SDS011;44268;43.138;0.072;2024-01-15T09:28:15;0.20;;;0.20;;
58484;SDS011;44268;43.138;0.072;2024-01-15T09:30:41;0.30;;;0.30;;
58484;SDS011;44268;43.138;0.072;2024-01-15T09:33:07;0.22;;;0.22;;
58484;SDS011;44268;43.138;0.072;2024-01-15T09:35:33;0.20;;;0.20;;
58484;SDS011;44268;43.138;0.072;2024-01-15T09:37:59;0.30;;;0.30;;
58484;SDS011;44268;43.138;0.072;2024-01-15T09:40:25;0.22;;;0.22;;
58484;SDS011;44268;43.138;0.072;2024-01-15T09:42:58;0.20;;;0.20;;
58484;SDS011;44268;43.138;0.072;2024-01-15T09:45:24;0.20;;;0.20;;
58484;SDS011;44268;43.138;0.072;2024-01-15T09:47:51;0.20;;;0.20;;
58484;SDS011;44268;43.138;0.072;2024-01-15T09:50:17;0.73;;;0.73;;
58484;SDS011;44268;43.138;0.072;2024-01-15T09:52:43;0.30;;;0.30;;
58484;SDS011;44268;43.138;0.072;2024-01-15T09:55:13;0.10;;;0.10;;
58484;SDS011;44268;43.138;0.072;2024-01-15T09:57:41;2.70;;;2.45;;
58484;SDS011;44268;43.138;0.072;2024-01-15T10:00:07;0.17;;;0.17;;
58484;SDS011;44268;43.138;0.072;2024-01-15T10:02:35;0.20;;;0.20;;
58484;SDS011;44268;43.138;0.072;2024-01-15T10:05:02;0.20;;;0.20;;
58484;SDS011;44268;43.138;0.072;2024-01-15T10:07:28;0.20;;;0.20;;
58484;SDS011;44268;43.138;0.072;2024-01-15T10:09:55;0.20;;;0.20;;
58484;SDS011;44268;43.138;0.072;2024-01-15T10:12:21;0.20;;;0.20;;
58484;SDS011;44268;43.138;0.072;2024-01-15T10:14:48;0.20;;;0.20;;
58484;SDS011;44268;43.138;0.072;2024-01-15T10:17:14;0.20;;;0.20;;
58484;SDS011;44268;43.138;0.072;2024-01-15T10:19:40;0.10;;;0.10;;
58484;SDS011;44268;43.138;0.072;2024-01-15T10:22:08;0.20;;;0.20;;
58484;SDS011;44268;43.138;0.072;2024-01-15T10:24:37;0.20;;;0.20;;
58484;SDS011;44268;43.138;0.072;2024-01-15T10:27:10;0.47;;;0.47;;
58484;SDS011;44268;43.138;0.072;2024-01-15T10:29:36;0.13;;;0.13;;
58484;SDS011;44268;43.138;0.072;2024-01-15T10:32:03;0.20;;;0.20;;
58484;SDS011;44268;43.138;0.072;2024-01-15T10:34:33;0.30;;;0.30;;
58484;SDS011;44268;43.138;0.072;2024-01-15T10:36:59;0.20;;;0.20;;
58484;SDS011;44268;43.138;0.072;2024-01-15T10:39:25;0.20;;;0.20;;
58484;SDS011;44268;43.138;0.072;2024-01-15T10:41:51;0.20;;;0.20;;
58484;SDS011;44268;43.138;0.072;2024-01-15T10:44:17;0.30;;;0.30;;
58484;SDS011;44268;43.138;0.072;2024-01-15T10:46:44;0.30;;;0.30;;
58484;SDS011;44268;43.138;0.072;2024-01-15T10:49:11;0.22;;;0.22;;
58484;SDS011;44268;43.138;0.072;2024-01-15T10:51:40;0.20;;;0.20;;
58484;SDS011;44268;43.138;0.072;2024-01-15T10:54:08;0.20;;;0.20;;
58484;SDS011;44268;43.138;0.072;2024-01-15T10:56:36;0.20;;;0.20;;
58484;SDS011;44268;43.138;0.072;2024-01-15T10:59:03;0.20;;;0.20;;
58484;SDS011;44268;43.138;0.072;2024-01-15T11:01:30;0.30;;;0.30;;
58484;SDS011;44268;43.138;0.072;2024-01-15T11:03:56;0.10;;;0.10;;
58484;SDS011;44268;43.138;0.072;2024-01-15T11:06:23;0.20;;;0.20;;
58484;SDS011;44268;43.138;0.072;2024-01-15T11:08:50;0.20;;;0.20;;
58484;SDS011;44268;43.138;0.072;2024-01-15T11:11:16;0.20;;;0.20;;
58484;SDS011;44268;43.138;0.072;2024-01-15T11:13:43;0.20;;;0.20;;
58484;SDS011;44268;43.138;0.072;2024-01-15T11:16:13;0.80;;;0.80;;
58484;SDS011;44268;43.138;0.072;2024-01-15T11:21:24;1.20;;;1.10;;
58484;SDS011;44268;43.138;0.072;2024-01-15T11:23:55;0.93;;;0.93;;
58484;SDS011;44268;43.138;0.072;2024-01-15T11:26:32;0.95;;;0.95;;
58484;SDS011;44268;43.138;0.072;2024-01-15T11:29:05;0.40;;;0.40;;
58484;SDS011;44268;43.138;0.072;2024-01-15T11:34:07;0.50;;;0.50;;
58484;SDS011;44268;43.138;0.072;2024-01-15T11:42:02;0.30;;;0.30;;
58484;SDS011;44268;43.138;0.072;2024-01-15T11:44:29;0.20;;;0.20;;
58484;SDS011;44268;43.138;0.072;2024-01-15T11:47:04;0.30;;;0.30;;
58484;SDS011;44268;43.138;0.072;2024-01-15T11:51:57;0.20;;;0.20;;
58484;SDS011;44268;43.138;0.072;2024-01-15T11:54:24;0.20;;;0.20;;
58484;SDS011;44268;43.138;0.072;2024-01-15T11:56:51;0.57;;;0.57;;
58484;SDS011;44268;43.138;0.072;2024-01-15T11:59:18;0.20;;;0.20;;
58484;SDS011;44268;43.138;0.072;2024-01-15T12:01:44;0.20;;;0.20;;
58484;SDS011;44268;43.138;0.072;2024-01-15T12:04:10;0.70;;;0.30;;
58484;SDS011;44268;43.138;0.072;2024-01-15T12:06:38;0.30;;;0.30;;
58484;SDS011;44268;43.138;0.072;2024-01-15T12:09:07;0.30;;;0.30;;
58484;SDS011;44268;43.138;0.072;2024-01-15T12:11:34;0.20;;;0.20;;
58484;SDS011;44268;43.138;0.072;2024-01-15T12:14:02;0.20;;;0.20;;
58484;SDS011;44268;43.138;0.072;2024-01-15T12:16:28;0.50;;;0.50;;
58484;SDS011;44268;43.138;0.072;2024-01-15T12:18:54;0.52;;;0.52;;
58484;SDS011;44268;43.138;0.072;2024-01-15T12:21:20;0.35;;;0.35;;
58484;SDS011;44268;43.138;0.072;2024-01-15T12:23:46;0.43;;;0.43;;
58484;SDS011;44268;43.138;0.072;2024-01-15T12:26:13;1.90;;;1.48;;
58484;SDS011;44268;43.138;0.072;2024-01-15T12:28:39;0.63;;;0.63;;
58484;SDS011;44268;43.138;0.072;2024-01-15T12:31:05;0.20;;;0.20;;
58484;SDS011;44268;43.138;0.072;2024-01-15T12:33:32;0.60;;;0.60;;
58484;SDS011;44268;43.138;0.072;2024-01-15T12:35:59;1.13;;;0.73;;
58484;SDS011;44268;43.138;0.072;2024-01-15T12:38:25;0.20;;;0.20;;
58484;SDS011;44268;43.138;0.072;2024-01-15T12:40:51;0.20;;;0.20;;
58484;SDS011;44268;43.138;0.072;2024-01-15T12:43:17;0.28;;;0.28;;
58484;SDS011;44268;43.138;0.072;2024-01-15T12:45:43;0.55;;;0.55;;
58484;SDS011;44268;43.138;0.072;2024-01-15T12:48:10;0.30;;;0.30;;
58484;SDS011;44268;43.138;0.072;2024-01-15T12:50:36;0.30;;;0.30;;
58484;SDS011;44268;43.138;0.072;2024-01-15T12:53:02;0.82;;;0.82;;
58484;SDS011;44268;43.138;0.072;2024-01-15T12:55:28;1.45;;;0.30;;
58484;SDS011;44268;43.138;0.072;2024-01-15T12:57:54;0.28;;;0.28;;
58484;SDS011;44268;43.138;0.072;2024-01-15T13:00:20;0.30;;;0.30;;
58484;SDS011;44268;43.138;0.072;2024-01-15T13:02:46;0.20;;;0.20;;
58484;SDS011;44268;43.138;0.072;2024-01-15T13:05:14;0.20;;;0.20;;
58484;SDS011;44268;43.138;0.072;2024-01-15T13:07:42;0.30;;;0.30;;
58484;SDS011;44268;43.138;0.072;2024-01-15T13:10:08;0.28;;;0.28;;
58484;SDS011;44268;43.138;0.072;2024-01-15T13:12:34;0.20;;;0.20;;
58484;SDS011;44268;43.138;0.072;2024-01-15T13:15:00;0.30;;;0.30;;
58484;SDS011;44268;43.138;0.072;2024-01-15T13:17:29;2.35;;;1.65;;
58484;SDS011;44268;43.138;0.072;2024-01-15T13:19:55;0.35;;;0.35;;
58484;SDS011;44268;43.138;0.072;2024-01-15T13:22:21;0.35;;;0.35;;
58484;SDS011;44268;43.138;0.072;2024-01-15T13:24:47;0.30;;;0.30;;
58484;SDS011;44268;43.138;0.072;2024-01-15T13:27:13;0.95;;;0.95;;
58484;SDS011;44268;43.138;0.072;2024-01-15T13:29:39;1.25;;;1.00;;
58484;SDS011;44268;43.138;0.072;2024-01-15T13:32:05;0.30;;;0.30;;
58484;SDS011;44268;43.138;0.072;2024-01-15T13:34:31;0.35;;;0.35;;
58484;SDS011;44268;43.138;0.072;2024-01-15T13:36:57;0.20;;;0.20;;
58484;SDS011;44268;43.138;0.072;2024-01-15T13:39:23;0.20;;;0.20;;
58484;SDS011;44268;43.138;0.072;2024-01-15T13:41:49;0.30;;;0.30;;
58484;SDS011;44268;43.138;0.072;2024-01-15T13:44:16;0.30;;;0.30;;
58484;SDS011;44268;43.138;0.072;2024-01-15T13:46:42;0.30;;;0.30;;
58484;SDS011;44268;43.138;0.072;2024-01-15T13:49:08;0.38;;;0.38;;
58484;SDS011;44268;43.138;0.072;2024-01-15T13:51:34;0.85;;;0.85;;
58484;SDS011;44268;43.138;0.072;2024-01-15T13:54:01;0.30;;;0.30;;
58484;SDS011;44268;43.138;0.072;2024-01-15T13:56:29;0.43;;;0.43;;
58484;SDS011;44268;43.138;0.072;2024-01-15T13:58:57;0.30;;;0.30;;
58484;SDS011;44268;43.138;0.072;2024-01-15T14:01:24;0.77;;;0.77;;
58484;SDS011;44268;43.138;0.072;2024-01-15T14:03:50;0.30;;;0.30;;
58484;SDS011;44268;43.138;0.072;2024-01-15T14:06:16;0.30;;;0.30;;
58484;SDS011;44268;43.138;0.072;2024-01-15T14:08:42;0.30;;;0.30;;
58484;SDS011;44268;43.138;0.072;2024-01-15T14:11:08;0.30;;;0.30;;
58484;SDS011;44268;43.138;0.072;2024-01-15T14:13:35;0.38;;;0.38;;
58484;SDS011;44268;43.138;0.072;2024-01-15T14:16:01;0.20;;;0.20;;
58484;SDS011;44268;43.138;0.072;2024-01-15T14:18:27;0.30;;;0.30;;
58484;SDS011;44268;43.138;0.072;2024-01-15T14:20:53;0.43;;;0.43;;
58484;SDS011;44268;43.138;0.072;2024-01-15T14:23:20;0.40;;;0.40;;
58484;SDS011;44268;43.138;0.072;2024-01-15T14:25:46;0.30;;;0.30;;
58484;SDS011;44268;43.138;0.072;2024-01-15T14:28:12;0.20;;;0.20;;
58484;SDS011;44268;43.138;0.072;2024-01-15T14:30:38;0.30;;;0.30;;
58484;SDS011;44268;43.138;0.072;2024-01-15T14:33:04;0.30;;;0.30;;
58484;SDS011;44268;43.138;0.072;2024-01-15T14:35:30;1.42;;;1.33;;
58484;SDS011;44268;43.138;0.072;2024-01-15T14:37:56;0.30;;;0.30;;
58484;SDS011;44268;43.138;0.072;2024-01-15T14:40:23;0.80;;;0.80;;
58484;SDS011;44268;43.138;0.072;2024-01-15T14:42:49;0.43;;;0.43;;
58484;SDS011;44268;43.138;0.072;2024-01-15T14:45:16;0.70;;;0.70;;
58484;SDS011;44268;43.138;0.072;2024-01-15T14:47:42;0.68;;;0.68;;
58484;SDS011;44268;43.138;0.072;2024-01-15T14:50:09;0.75;;;0.75;;
58484;SDS011;44268;43.138;0.072;2024-01-15T14:52:36;0.70;;;0.70;;
58484;SDS011;44268;43.138;0.072;2024-01-15T14:55:02;0.93;;;0.57;;